Time;durP1;ratioP1;P1;durP2;ratioP2;P2;SDS_P1;SDS_P2;PMS_P1;PMS_P2;Temp;Humidity;BMP_temperature;BMP_pressure;BME280_temperature;BME280_humidity;BME280_pressure;Samples;Min_cycle;Max_cycle;Signal;HPM_P1;HPM_P2
2021/10/18 00:00:06;;;;;;;2.33;2.22;;;;;;;8.61;61.02;100529.81;4384443;32;33924;-82
2021/10/18 00:02:42;;;;;;;2.37;2.17;;;;;;;8.83;60.66;100528.09;4383928;32;33602;-82
2021/10/18 00:05:14;;;;;;;3.28;2.85;;;;;;;8.92;60.28;100518.56;4384783;32;34105;-82
2021/10/18 00:08:02;;;;;;;1.98;1.87;;;;;;;8.96;60.13;100531.50;4383755;32;32728;-82
2021/10/18 00:10:50;;;;;;;2.92;2.65;;;;;;;8.97;60.40;100533.19;4386531;32;35066;-82
2021/10/18 00:13:58;;;;;;;3.00;1.67;;;;;;;8.94;60.29;100535.22;4388923;32;34365;-82
2021/10/18 00:16:28;;;;;;;2.17;2.05;;;;;;;9.05;60.04;100536.09;4384449;32;34487;-81
2021/10/18 00:19:16;;;;;;;1.40;1.30;;;;;;;8.96;60.50;100534.16;4388834;32;34240;-83
2021/10/18 00:21:46;;;;;;;1.42;1.27;;;;;;;9.08;60.54;100535.87;4384807;32;36128;-83
2021/10/18 00:24:30;;;;;;;3.00;2.22;;;;;;;8.93;61.05;100530.88;4386530;32;35008;-83
2021/10/18 00:27:01;;;;;;;2.08;1.62;;;;;;;9.02;61.19;100528.37;4396972;32;33613;-82
2021/10/18 00:29:33;;;;;;;3.17;2.37;;;;;;;9.29;60.72;100530.72;4384622;32;33194;-81
2021/10/18 00:32:09;;;;;;;3.22;2.12;;;;;;;9.28;61.05;100523.72;4397229;32;35484;-82
2021/10/18 00:34:54;;;;;;;2.33;2.12;;;;;;;9.10;61.50;100525.13;4388061;32;33599;-81
2021/10/18 00:37:41;;;;;;;4.80;2.65;;;;;;;9.19;61.49;100527.09;4385600;32;32964;-82
2021/10/18 00:40:27;;;;;;;1.65;1.37;;;;;;;9.28;61.33;100519.25;4386944;32;33528;-82
2021/10/18 00:43:11;;;;;;;3.42;3.08;;;;;;;9.40;61.07;100520.12;4397966;32;34703;-82
2021/10/18 00:45:55;;;;;;;1.58;1.48;;;;;;;9.37;61.22;100529.16;4387497;32;34062;-82
2021/10/18 00:48:43;;;;;;;2.62;1.62;;;;;;;9.36;61.17;100526.62;4386527;32;33464;-82
2021/10/18 00:51:31;;;;;;;1.95;1.85;;;;;;;9.65;60.30;100528.69;4386471;32;34629;-81
2021/10/18 00:54:07;;;;;;;3.60;1.95;;;;;;;9.51;60.69;100522.78;4384373;32;36118;-80
2021/10/18 00:56:39;;;;;;;6.35;2.10;;;;;;;9.54;60.84;100525.22;4385161;32;33877;-82
2021/10/18 00:59:27;;;;;;;1.40;1.30;;;;;;;9.62;60.93;100520.16;4386726;32;33286;-81
2021/10/18 01:02:16;;;;;;;4.57;2.50;;;;;;;9.64;61.20;100524.34;4386257;32;33495;-81
2021/10/18 01:05:05;;;;;;;3.22;2.80;;;;;;;9.47;61.58;100524.00;4372777;32;34536;-81
2021/10/18 01:07:55;;;;;;;2.78;2.58;;;;;;;9.65;61.25;100523.38;4373870;32;33635;-82
2021/10/18 01:10:43;;;;;;;3.53;2.72;;;;;;;9.56;60.99;100524.09;4401098;32;32705;-81
2021/10/18 01:13:19;;;;;;;3.47;2.80;;;;;;;9.60;60.96;100522.06;4383322;32;33864;-82
2021/10/18 01:16:07;;;;;;;;;;;;;;;9.94;60.14;100519.25;4384016;32;33529;-82
2021/10/18 01:18:37;;;;;;;2.47;2.28;;;;;;;9.90;60.48;100519.66;4397168;32;35676;-82
2021/10/18 01:21:13;;;;;;;3.03;2.35;;;;;;;9.92;60.56;100520.38;4372241;32;31845;-83
2021/10/18 01:23:42;;;;;;;4.78;3.28;;;;;;;9.98;60.43;100517.19;4374345;32;34234;-82
2021/10/18 01:26:26;;;;;;;3.92;2.65;;;;;;;10.07;59.85;100517.34;4375823;32;35765;-82
2021/10/18 01:29:14;;;;;;;2.37;2.17;;;;;;;10.02;60.28;100518.66;4356751;32;34440;-82
2021/10/18 01:31:59;;;;;;;2.83;2.53;;;;;;;9.94;60.75;100515.75;4377055;32;35183;-82
2021/10/18 01:34:30;;;;;;;3.15;2.92;;;;;;;10.22;59.97;100521.44;4381099;32;33448;-83
2021/10/18 01:37:18;;;;;;;2.20;1.65;;;;;;;10.21;60.14;100519.72;4364147;32;33637;-81
2021/10/18 01:40:08;;;;;;;2.53;2.33;;;;;;;10.23;60.06;100522.25;4371476;32;35236;-82
2021/10/18 01:42:53;;;;;;;2.55;2.35;;;;;;;10.19;60.06;100511.03;4385106;32;32497;-81
2021/10/18 01:45:23;;;;;;;2.40;2.22;;;;;;;10.21;60.30;100522.38;4348871;32;33475;-81
2021/10/18 01:48:11;;;;;;;2.78;2.40;;;;;;;10.38;59.81;100519.19;4364570;32;35158;-82
2021/10/18 01:50:40;;;;;;;2.17;1.98;;;;;;;10.36;59.74;100521.13;4364739;32;34157;-81
2021/10/18 01:53:15;;;;;;;4.00;2.05;;;;;;;10.20;60.34;100520.69;4364352;32;35043;-81
2021/10/18 01:56:01;;;;;;;2.25;1.98;;;;;;;10.47;59.79;100521.09;4377351;32;33137;-81
2021/10/18 01:58:49;;;;;;;1.98;1.55;;;;;;;10.56;59.73;100519.50;4376343;32;33828;-82
2021/10/18 02:01:20;;;;;;;1.80;1.70;;;;;;;10.40;60.58;100519.91;4379593;32;35073;-82
2021/10/18 02:04:08;;;;;;;1.80;1.70;;;;;;;10.33;60.67;100509.91;4379894;32;32506;-82
2021/10/18 02:06:57;;;;;;;2.45;1.90;;;;;;;10.33;60.73;100515.22;4376912;32;33946;-82
2021/10/18 02:09:35;;;;;;;8.25;2.92;;;;;;;10.30;61.01;100508.34;4357558;32;33715;-81
2021/10/18 02:12:23;;;;;;;3.37;2.92;;;;;;;10.50;60.51;100507.56;4358740;32;34408;-81
2021/10/18 02:15:11;;;;;;;8.65;2.45;;;;;;;10.46;60.64;100506.13;4381136;32;32992;-82
2021/10/18 02:17:57;;;;;;;3.85;2.35;;;;;;;10.53;60.50;100501.97;4356023;32;33429;-82
2021/10/18 02:20:45;;;;;;;2.58;2.37;;;;;;;10.83;59.82;100509.22;4378293;32;35026;-81
2021/10/18 02:23:30;;;;;;;2.87;2.67;;;;;;;10.97;59.81;100504.44;4350485;32;33413;-81
2021/10/18 02:26:00;;;;;;;3.72;2.62;;;;;;;10.62;60.88;100511.00;4356836;32;31470;-81
2021/10/18 02:28:30;;;;;;;12.37;2.53;;;;;;;10.67;60.69;100508.81;4380566;32;33499;-81
2021/10/18 02:31:06;;;;;;;3.87;2.25;;;;;;;10.73;60.65;100513.62;4380739;32;35532;-82
2021/10/18 02:33:54;;;;;;;;;;;;;;;10.83;60.53;100511.87;4391016;32;34654;-82
2021/10/18 02:36:32;;;;;;;1.60;1.33;;;;;;;11.08;59.98;100511.50;4380453;32;33773;-82
2021/10/18 02:39:08;;;;;;;2.75;1.92;;;;;;;10.90;60.47;100516.56;4380620;32;33912;-81
2021/10/18 02:41:44;;;;;;;4.62;2.35;;;;;;;10.98;60.29;100521.25;4381603;32;35977;-82
2021/10/18 02:44:20;;;;;;;4.32;2.58;;;;;;;10.84;60.62;100519.75;4369273;32;34232;-81
2021/10/18 02:46:50;;;;;;;2.58;2.37;;;;;;;10.98;60.23;100514.13;4365493;32;31857;-81
2021/10/18 02:49:38;;;;;;;1.90;1.80;;;;;;;11.08;59.93;100507.03;4382099;32;33021;-82
2021/10/18 02:52:26;;;;;;;2.55;2.35;;;;;;;11.30;59.49;100512.19;4370087;32;34889;-82
2021/10/18 02:55:14;;;;;;;3.33;2.90;;;;;;;11.15;60.25;100518.00;4368662;32;33675;-82
2021/10/18 02:58:03;;;;;;;9.10;3.95;;;;;;;11.20;60.17;100515.78;4381067;32;34699;-82
2021/10/18 03:00:35;;;;;;;3.83;3.00;;;;;;;11.02;60.27;100512.88;4381125;32;32641;-81
2021/10/18 03:03:06;;;;;;;2.87;2.67;;;;;;;11.19;59.86;100506.09;4379689;32;34756;-82
2021/10/18 03:05:39;;;;;;;3.28;2.75;;;;;;;11.32;59.21;100516.44;4388548;32;34449;-82
2021/10/18 03:08:29;;;;;;;3.47;2.92;;;;;;;11.13;59.76;100506.66;4372302;32;31739;-82
2021/10/18 03:11:16;;;;;;;2.22;2.12;;;;;;;10.88;60.50;100512.34;4393621;32;33707;-81
2021/10/18 03:13:45;;;;;;;2.40;2.20;;;;;;;11.03;60.22;100508.41;4370457;32;34573;-81
2021/10/18 03:16:29;;;;;;;3.22;2.67;;;;;;;10.62;61.50;100511.00;4371590;32;34154;-82
2021/10/18 03:19:07;;;;;;;1.48;1.37;;;;;;;10.81;61.13;100519.16;4383542;32;33019;-83
2021/10/18 03:21:51;;;;;;;4.03;3.25;;;;;;;11.03;60.47;100522.53;4394849;32;33985;-83
2021/10/18 03:24:41;;;;;;;3.97;3.00;;;;;;;11.11;60.39;100522.75;4382151;32;35122;-83
2021/10/18 03:27:12;;;;;;;2.67;2.47;;;;;;;11.18;60.35;100523.91;4397221;32;33702;-83
2021/10/18 03:29:43;;;;;;;2.35;2.15;;;;;;;10.98;61.01;100527.44;4409647;32;32736;-82
2021/10/18 03:32:11;;;;;;;3.08;2.55;;;;;;;11.10;60.61;100525.53;4397408;32;33276;-82
2021/10/18 03:34:47;;;;;;;3.08;2.15;;;;;;;11.17;60.33;100527.56;4385530;32;34664;-82
2021/10/18 03:37:23;;;;;;;2.92;2.67;;;;;;;11.47;59.19;100530.25;4385649;32;34091;-82
2021/10/18 03:40:01;;;;;;;11.00;2.55;;;;;;;11.48;59.15;100529.28;4385883;32;33064;-82
2021/10/18 03:42:37;;;;;;;5.68;2.45;;;;;;;11.44;59.23;100526.03;4372116;32;33579;-82
2021/10/18 03:45:11;;;;;;;5.43;2.15;;;;;;;11.49;58.99;100533.62;4385217;32;35069;-81
2021/10/18 03:47:39;;;;;;;3.00;2.80;;;;;;;11.48;58.95;100535.47;4384665;32;34976;-81
2021/10/18 03:50:28;;;;;;;2.80;1.85;;;;;;;11.49;58.96;100530.97;4397282;32;33191;-82
2021/10/18 03:53:16;;;;;;;2.40;1.48;;;;;;;11.62;58.34;100534.31;4374179;32;33683;-82
2021/10/18 03:56:04;;;;;;;3.40;3.10;;;;;;;11.55;58.54;100533.09;4386678;32;35869;-81
2021/10/18 03:58:48;;;;;;;3.35;2.92;;;;;;;11.46;58.75;100531.22;4400628;32;34298;-82
2021/10/18 04:01:28;;;;;;;1.98;1.87;;;;;;;11.64;57.97;100533.16;4396895;32;33075;-83
2021/10/18 04:04:14;;;;;;;2.35;2.15;;;;;;;11.49;58.32;100536.28;4386420;32;34888;-83
2021/10/18 04:06:47;;;;;;;2.05;1.85;;;;;;;11.50;58.33;100532.66;4388817;32;34393;-83
2021/10/18 04:09:26;;;;;;;3.22;2.90;;;;;;;11.46;58.58;100534.72;4401879;32;34822;-83
2021/10/18 04:12:09;;;;;;;2.25;2.08;;;;;;;11.39;58.75;100536.25;4396492;32;34217;-82
2021/10/18 04:14:58;;;;;;;1.83;1.58;;;;;;;11.36;58.81;100527.66;4387677;32;33410;-80
2021/10/18 04:17:26;;;;;;;3.80;3.40;;;;;;;11.35;59.04;100540.12;4397672;32;35897;-81
2021/10/18 04:20:07;;;;;;;2.65;2.45;;;;;;;11.39;58.93;100532.72;4393321;32;33678;-81
2021/10/18 04:22:39;;;;;;;5.55;3.47;;;;;;;11.53;58.51;100535.06;4398706;32;32941;-81
2021/10/18 04:25:31;;;;;;;9.75;2.53;;;;;;;11.46;58.55;100533.91;4400234;32;34372;-81
2021/10/18 04:28:22;;;;;;;2.55;2.35;;;;;;;11.52;58.38;100534.22;4395620;32;33346;-82
2021/10/18 04:31:06;;;;;;;3.40;3.10;;;;;;;11.58;58.28;100538.19;4386194;32;35041;-80
2021/10/18 04:33:46;;;;;;;3.80;2.37;;;;;;;11.52;58.39;100542.19;4385788;32;33639;-81
2021/10/18 04:36:34;;;;;;;3.67;3.28;;;;;;;11.54;58.33;100539.41;4386961;32;33537;-81
2021/10/18 04:39:03;;;;;;;4.50;2.25;;;;;;;11.55;58.24;100531.25;4394065;32;35947;-80
2021/10/18 04:41:37;;;;;;;2.55;2.35;;;;;;;11.61;58.09;100540.59;4383866;32;34607;-80
2021/10/18 04:44:06;;;;;;;4.75;2.83;;;;;;;11.38;58.74;100547.03;4381496;32;33099;-82
2021/10/18 04:46:42;;;;;;;3.12;2.83;;;;;;;11.47;58.72;100547.06;4398093;32;32951;-80
2021/10/18 04:49:28;;;;;;;3.58;2.08;;;;;;;11.26;59.22;100547.22;4386364;32;35726;-80
2021/10/18 04:52:01;;;;;;;3.92;2.45;;;;;;;11.33;59.23;100547.41;4381047;32;34074;-81
2021/10/18 04:54:39;;;;;;;2.85;2.58;;;;;;;11.32;59.04;100547.53;4385094;32;34123;-81
2021/10/18 04:57:15;;;;;;;2.78;2.42;;;;;;;11.23;59.34;100544.84;4377616;32;32451;-81
2021/10/18 05:00:03;;;;;;;3.42;3.12;;;;;;;11.30;59.20;100552.16;4381570;32;34644;-83
2021/10/18 05:02:47;;;;;;;2.25;2.15;;;;;;;11.12;59.78;100550.22;4385317;32;35141;-81
2021/10/18 05:05:20;;;;;;;6.03;3.10;;;;;;;11.21;59.70;100552.94;4384844;32;33308;-82
2021/10/18 05:08:09;;;;;;;2.03;1.92;;;;;;;11.25;59.65;100561.53;4384988;32;34535;-83
2021/10/18 05:10:53;;;;;;;3.45;3.20;;;;;;;11.38;58.81;100557.69;4383674;32;34897;-82
2021/10/18 05:13:37;;;;;;;4.30;3.53;;;;;;;11.38;58.44;100568.34;4395701;32;33113;-82
2021/10/18 05:16:05;;;;;;;2.45;2.08;;;;;;;10.99;59.57;100568.19;4384382;32;33664;-83
2021/10/18 05:18:53;;;;;;;4.72;3.00;;;;;;;11.22;59.13;100569.78;4386443;32;33978;-83
2021/10/18 05:21:28;;;;;;;2.75;2.47;;;;;;;11.21;59.20;100566.25;4385258;32;35077;-83
2021/10/18 05:24:05;;;;;;;4.60;2.62;;;;;;;11.20;59.27;100575.22;4392287;32;33904;-82
2021/10/18 05:26:41;;;;;;;5.60;2.97;;;;;;;10.77;60.51;100586.91;4369710;32;33247;-82
2021/10/18 05:29:11;;;;;;;4.72;2.35;;;;;;;10.98;60.35;100587.78;4394062;32;33175;-82
2021/10/18 05:31:54;;;;;;;3.55;3.22;;;;;;;11.12;59.91;100585.69;4381102;32;36219;-83
2021/10/18 05:34:42;;;;;;;3.80;3.10;;;;;;;11.25;59.54;100585.50;4391208;32;34741;-82
2021/10/18 05:37:27;;;;;;;3.70;3.28;;;;;;;11.17;59.73;100587.94;4361758;32;33572;-82
2021/10/18 05:39:55;;;;;;;2.87;2.28;;;;;;;11.05;60.29;100586.31;4361505;32;33696;-82
2021/10/18 05:42:43;;;;;;;3.67;3.35;;;;;;;11.21;60.14;100592.87;4382629;32;35580;-82
2021/10/18 05:45:33;;;;;;;2.62;2.42;;;;;;;11.32;59.77;100596.34;4371720;32;34187;-82
2021/10/18 05:48:04;;;;;;;4.40;2.62;;;;;;;11.21;60.16;100600.06;4382715;32;34134;-83
2021/10/18 05:50:36;;;;;;;3.47;3.15;;;;;;;11.24;60.19;100600.59;4381433;32;33385;-82
2021/10/18 05:53:20;;;;;;;4.03;3.58;;;;;;;11.37;60.17;100607.44;4381174;32;33662;-83
2021/10/18 05:56:05;;;;;;;22.17;6.03;;;;;;;11.40;60.28;100606.34;4383050;32;35044;-82
2021/10/18 05:58:41;;;;;;;13.38;5.60;;;;;;;11.37;60.76;100614.59;4375004;32;31934;-82
2021/10/18 06:01:26;;;;;;;9.77;7.00;;;;;;;11.53;60.44;100615.84;4381542;32;34616;-83
2021/10/18 06:04:10;;;;;;;10.02;6.97;;;;;;;11.46;60.76;100621.81;4382771;32;34974;-83
2021/10/18 06:06:41;;;;;;;16.75;7.07;;;;;;;11.64;60.54;100623.78;4368970;32;35054;-82
2021/10/18 06:09:16;;;;;;;8.10;6.10;;;;;;;11.74;60.51;100629.19;4380915;32;33159;-83
2021/10/18 06:12:04;;;;;;;6.72;6.00;;;;;;;11.60;60.74;100630.37;4370609;32;33645;-82
2021/10/18 06:14:40;;;;;;;8.95;8.13;;;;;;;11.68;60.75;100637.69;4381366;32;34154;-82
2021/10/18 06:17:16;;;;;;;16.75;7.32;;;;;;;11.86;60.37;100634.31;4369131;32;34416;-82
2021/10/18 06:20:01;;;;;;;9.88;7.80;;;;;;;11.76;60.89;100646.75;4382514;32;33243;-82
2021/10/18 06:22:31;;;;;;;11.25;8.02;;;;;;;12.00;60.23;100644.63;4368948;32;33219;-83
2021/10/18 06:25:03;;;;;;;16.10;10.00;;;;;;;12.16;59.85;100646.78;4380894;32;35419;-82
2021/10/18 06:27:47;;;;;;;12.70;9.20;;;;;;;11.95;60.16;100654.00;4370134;32;34068;-82
2021/10/18 06:30:26;;;;;;;11.65;8.80;;;;;;;12.06;59.91;100660.09;4380829;32;33178;-82
2021/10/18 06:33:10;;;;;;;23.35;12.80;;;;;;;12.10;59.90;100660.69;4381187;32;34465;-83
2021/10/18 06:35:54;;;;;;;21.15;12.80;;;;;;;12.02;60.32;100666.66;4381499;32;35989;-82
2021/10/18 06:38:30;;;;;;;14.15;11.15;;;;;;;12.18;60.01;100669.69;4371319;32;32891;-83
2021/10/18 06:41:18;;;;;;;16.42;9.52;;;;;;;12.20;59.91;100669.56;4393246;32;32662;-84
2021/10/18 06:44:05;;;;;;;;;;;;;;;12.49;58.64;100671.37;4393271;32;32204;-83
2021/10/18 06:46:53;;;;;;;10.05;8.10;;;;;;;12.69;57.97;100674.94;4384335;32;34626;-82
2021/10/18 06:49:41;;;;;;;8.77;7.00;;;;;;;12.37;59.05;100682.28;4372566;32;33048;-83
2021/10/18 06:52:33;;;;;;;6.53;5.93;;;;;;;12.66;57.48;100683.25;4382953;32;33214;-83
2021/10/18 06:55:11;;;;;;;6.62;5.95;;;;;;;12.79;56.65;100676.69;4383093;32;33878;-83
2021/10/18 06:58:02;;;;;;;6.65;5.65;;;;;;;12.48;57.94;100688.34;4372427;32;33548;-84
2021/10/18 07:00:34;;;;;;;7.97;5.65;;;;;;;12.43;58.39;100687.94;4370631;32;35210;-83
2021/10/18 07:03:19;;;;;;;9.00;5.87;;;;;;;12.69;57.94;100683.81;4398816;32;33137;-83
2021/10/18 07:06:07;;;;;;;9.07;6.15;;;;;;;12.93;57.00;100678.13;4382590;32;32411;-83
2021/10/18 07:08:44;;;;;;;7.17;5.10;;;;;;;12.77;57.65;100683.12;4382912;32;34779;-82
2021/10/18 07:11:28;;;;;;;13.07;6.72;;;;;;;12.94;57.69;100682.50;4382863;32;34102;-82
2021/10/18 07:14:04;;;;;;;8.25;5.00;;;;;;;12.71;57.95;100689.00;4395290;32;33171;-82
2021/10/18 07:16:40;;;;;;;10.00;5.85;;;;;;;13.18;56.08;100686.47;4384131;32;34556;-83
2021/10/18 07:19:28;;;;;;;4.80;4.37;;;;;;;13.08;56.78;100682.09;4382739;32;35266;-82
2021/10/18 07:22:05;;;;;;;7.70;7.07;;;;;;;13.22;56.95;100679.03;4382498;32;34679;-82
2021/10/18 07:24:41;;;;;;;16.27;7.95;;;;;;;13.33;57.15;100694.91;4383146;32;33269;-82
2021/10/18 07:27:28;;;;;;;8.85;6.57;;;;;;;13.37;57.01;100694.50;4371149;32;34012;-83
2021/10/18 07:30:01;;;;;;;11.48;6.65;;;;;;;13.56;56.91;100690.97;4386777;32;35528;-82
2021/10/18 07:32:40;;;;;;;9.88;8.32;;;;;;;13.68;56.47;100690.69;4382475;32;34145;-84
2021/10/18 07:35:36;;;;;;;12.90;7.10;;;;;;;13.86;56.21;100685.47;4383020;32;34231;-83
2021/10/18 07:38:24;;;;;;;9.85;7.70;;;;;;;13.85;56.52;100687.28;4372720;32;32573;-83
2021/10/18 07:41:12;;;;;;;16.60;9.10;;;;;;;14.37;53.99;100684.06;4383820;32;35979;-82
2021/10/18 07:43:46;;;;;;;8.80;7.20;;;;;;;14.47;53.46;100685.72;4370896;32;34465;-83
2021/10/18 07:46:30;;;;;;;7.30;5.93;;;;;;;14.01;54.90;100694.72;4382175;32;32885;-82
2021/10/18 07:49:18;;;;;;;10.25;6.05;;;;;;;14.27;54.13;100709.19;4391471;32;33402;-83
2021/10/18 07:52:04;;;;;;;7.78;6.35;;;;;;;14.51;53.86;100705.00;4371790;32;34588;-83
2021/10/18 07:54:33;;;;;;;7.37;6.50;;;;;;;14.70;52.73;100713.81;4382103;32;33912;-83
2021/10/18 07:57:09;;;;;;;6.20;4.70;;;;;;;14.59;52.30;100715.81;4383778;32;32943;-83
2021/10/18 07:59:45;;;;;;;4.90;4.25;;;;;;;14.75;51.38;100719.53;4382041;32;33820;-83
2021/10/18 08:02:35;;;;;;;4.12;3.72;;;;;;;14.77;50.43;100716.72;4382612;32;35833;-82
2021/10/18 08:05:04;;;;;;;3.33;3.08;;;;;;;14.76;49.46;100710.50;4389282;32;33791;-83
2021/10/18 08:07:55;;;;;;;5.15;3.90;;;;;;;14.49;51.45;100713.16;4392371;32;33146;-83
2021/10/18 08:10:31;;;;;;;4.55;4.22;;;;;;;14.87;48.12;100712.16;4383015;32;32546;-82
2021/10/18 08:13:07;;;;;;;4.43;2.87;;;;;;;14.66;49.46;100712.41;4387744;32;34246;-83
2021/10/18 08:15:43;;;;;;;2.33;2.20;;;;;;;14.74;50.39;100717.03;4394166;32;34983;-83
2021/10/18 08:18:32;;;;;;;2.72;2.53;;;;;;;14.87;50.57;100714.84;4382595;32;33240;-83
2021/10/18 08:21:20;;;;;;;4.55;4.15;;;;;;;15.08;50.37;100715.41;4371993;32;33752;-83
2021/10/18 08:23:50;;;;;;;8.25;5.12;;;;;;;15.49;49.68;100714.91;4374993;32;34811;-82
2021/10/18 08:26:34;;;;;;;12.65;5.78;;;;;;;15.89;47.17;100725.97;4361777;32;32520;-84
2021/10/18 08:29:17;;;;;;;5.85;4.60;;;;;;;16.01;46.50;100722.88;4388942;32;32175;-83
2021/10/18 08:32:01;;;;;;;7.30;4.47;;;;;;;15.77;46.47;100733.41;4376964;32;33429;-84
2021/10/18 08:34:44;;;;;;;5.90;4.82;;;;;;;15.36;46.72;100726.00;4369467;32;34587;-84
2021/10/18 08:40:42;;;;;;;2.75;2.55;;;;;;;15.79;45.40;100728.72;4374673;32;32722;-84
2021/10/18 08:45:58;;;;;;;7.53;5.40;;;;;;;15.60;47.89;100728.06;4371546;32;35533;-82
2021/10/18 08:48:54;;;;;;;2.45;2.25;;;;;;;15.72;47.14;100722.31;4376853;32;32932;-82
2021/10/18 08:51:39;;;;;;;2.35;2.15;;;;;;;16.09;46.04;100724.78;4377824;32;33627;-82
2021/10/18 08:54:16;;;;;;;2.42;2.12;;;;;;;15.91;46.20;100722.13;4369378;32;33177;-83
2021/10/18 08:57:05;;;;;;;2.10;1.92;;;;;;;16.30;44.74;100725.25;4376824;32;35484;-83
2021/10/18 08:59:44;;;;;;;3.83;2.42;;;;;;;16.34;45.22;100729.31;4363612;32;35029;-83
2021/10/18 09:02:16;;;;;;;2.10;1.85;;;;;;;16.26;45.39;100723.91;4379614;32;33054;-83
2021/10/18 09:05:08;;;;;;;2.78;2.58;;;;;;;16.31;45.11;100727.78;4377403;32;33319;-82
2021/10/18 09:07:52;;;;;;;;;;;;;;;16.59;44.73;100725.78;4389224;32;34729;-83
2021/10/18 09:10:24;;;;;;;3.42;3.12;;;;;;;16.83;42.32;100732.16;4376716;32;34575;-83
2021/10/18 09:13:12;;;;;;;3.83;3.53;;;;;;;16.68;42.95;100733.75;4375849;32;33450;-84
2021/10/18 09:15:56;;;;;;;9.82;3.78;;;;;;;16.63;43.39;100730.69;4370902;32;33819;-83
2021/10/18 09:18:33;;;;;;;4.60;2.95;;;;;;;16.16;45.39;100733.91;4370073;32;34820;-83
2021/10/18 09:21:27;;;;;;;8.55;2.33;;;;;;;16.12;45.22;100729.81;4381703;32;32565;-83
2021/10/18 09:23:56;;;;;;;4.68;2.47;;;;;;;16.63;43.98;100729.84;4378467;32;31769;-83
2021/10/18 09:26:32;;;;;;;1.95;1.52;;;;;;;16.85;43.24;100731.97;4377049;32;34306;-83
2021/10/18 09:29:22;;;;;;;2.65;2.45;;;;;;;16.63;44.14;100730.69;4375301;32;34858;-85
2021/10/18 09:32:01;;;;;;;2.87;2.67;;;;;;;16.94;43.25;100736.38;4375702;32;33717;-83
2021/10/18 09:34:32;;;;;;;2.22;2.03;;;;;;;17.06;42.08;100725.16;4390150;32;33307;-82
2021/10/18 09:37:20;;;;;;;3.58;3.08;;;;;;;17.10;41.26;100731.06;4389742;32;33528;-83
2021/10/18 09:40:29;;;;;;;2.30;2.15;;;;;;;16.96;41.26;100735.22;4368548;32;35858;-82
2021/10/18 09:43:30;;;;;;;2.50;1.52;;;;;;;16.80;43.41;100731.63;4364316;32;34363;-82
2021/10/18 09:46:35;;;;;;;1.80;1.73;;;;;;;16.68;43.11;100733.75;4380994;32;33344;-82
2021/10/18 10:51:27;;;;;;;2.50;1.52;;;;;;;17.21;40.28;100715.47;4353185;32;34240;-85
2021/10/18 10:54:41;;;;;;;3.40;2.85;;;;;;;17.46;39.55;100719.09;4359885;32;35570;-84
2021/10/18 10:57:30;;;;;;;3.28;3.00;;;;;;;17.62;39.81;100715.41;4362347;32;33392;-84
2021/10/18 11:00:35;;;;;;;5.50;2.78;;;;;;;17.72;38.95;100712.53;4372411;32;33652;-82
2021/10/18 11:03:41;;;;;;;2.28;2.10;;;;;;;17.76;36.96;100712.03;4359899;32;33143;-82
2021/10/18 11:06:19;;;;;;;2.50;2.28;;;;;;;18.14;37.73;100699.75;4378763;32;35112;-83
2021/10/18 11:08:55;;;;;;;1.55;1.42;;;;;;;18.11;38.41;100700.91;4367353;32;33953;-82
2021/10/18 11:11:36;;;;;;;4.45;3.05;;;;;;;17.54;39.41;100711.84;4373593;32;33170;-83
2021/10/18 11:14:06;;;;;;;3.72;3.33;;;;;;;17.86;38.87;100706.50;4347456;32;32866;-82
2021/10/18 11:16:51;;;;;;;4.15;2.75;;;;;;;17.66;39.40;100707.84;4371940;32;34565;-83
2021/10/18 11:19:23;;;;;;;8.75;3.50;;;;;;;17.82;39.51;100699.75;4379886;32;33693;-84
2021/10/18 11:22:00;;;;;;;2.15;1.95;;;;;;;17.82;40.17;100703.31;4393050;32;32078;-83
2021/10/18 11:24:39;;;;;;;2.65;2.28;;;;;;;17.86;38.41;100693.03;4368316;32;33816;-83
2021/10/18 11:27:22;;;;;;;4.32;3.67;;;;;;;18.14;38.33;100694.34;4378858;32;35487;-82
2021/10/18 11:30:08;;;;;;;3.72;3.40;;;;;;;18.14;39.64;100691.66;4393269;32;34542;-82
2021/10/18 11:32:42;;;;;;;6.90;4.37;;;;;;;18.35;40.20;100692.81;4370745;32;32571;-82
2021/10/18 11:35:17;;;;;;;4.72;3.65;;;;;;;18.53;38.77;100692.59;4383774;32;33866;-81
2021/10/18 11:38:12;;;;;;;5.97;3.43;;;;;;;18.48;38.73;100701.22;4369835;32;34772;-83
2021/10/18 11:40:57;;;;;;;8.75;3.97;;;;;;;18.79;37.49;100690.50;4393392;32;35042;-82
2021/10/18 11:43:30;;;;;;;3.80;3.37;;;;;;;18.77;37.13;100693.34;4382355;32;33513;-82
2021/10/18 11:46:02;;;;;;;3.40;3.10;;;;;;;18.55;37.67;100687.87;4383365;32;33349;-83
2021/10/18 11:48:32;;;;;;;4.78;3.90;;;;;;;18.24;39.03;100693.12;4382251;32;34510;-81
2021/10/18 11:51:10;;;;;;;4.77;4.40;;;;;;;18.42;38.53;100680.34;4383846;32;34022;-85
2021/10/18 11:53:53;;;;;;;4.68;4.32;;;;;;;18.85;38.63;100681.69;4382022;32;33317;-82
2021/10/18 11:56:30;;;;;;;6.30;3.58;;;;;;;18.59;37.94;100686.53;4393762;32;33346;-83
2021/10/18 11:59:06;;;;;;;2.37;2.25;;;;;;;18.72;36.45;100679.53;4382467;32;35683;-82
2021/10/18 12:01:36;;;;;;;3.03;2.78;;;;;;;18.43;37.83;100676.63;4369815;32;33688;-84
2021/10/18 12:04:09;;;;;;;3.20;2.83;;;;;;;18.46;38.22;100689.78;4383736;32;33415;-81
2021/10/18 12:06:56;;;;;;;3.08;2.83;;;;;;;18.26;38.37;100691.16;4392783;32;33079;-83
2021/10/18 12:09:27;;;;;;;6.95;3.15;;;;;;;18.22;38.91;100689.78;4381923;32;34387;-83
2021/10/18 12:12:12;;;;;;;3.08;2.62;;;;;;;18.59;38.15;100684.66;4382309;32;34895;-82
2021/10/18 12:14:59;;;;;;;2.85;2.70;;;;;;;18.65;37.61;100681.28;4370350;32;32536;-85
2021/10/18 12:17:30;;;;;;;3.25;3.05;;;;;;;18.87;36.97;100680.50;4370467;32;32853;-82
2021/10/18 12:20:04;;;;;;;3.03;2.75;;;;;;;18.87;35.92;100677.81;4382425;32;34458;-82
2021/10/18 12:23:04;;;;;;;4.43;2.10;;;;;;;18.33;38.42;100673.28;4360344;32;34371;-85
2021/10/18 12:25:36;;;;;;;4.15;3.50;;;;;;;18.34;38.82;100671.44;4398755;32;34520;-84
2021/10/18 12:28:29;;;;;;;5.40;3.25;;;;;;;18.34;38.10;100676.84;4386138;32;32443;-83
2021/10/18 12:31:06;;;;;;;3.97;2.33;;;;;;;18.23;38.56;100680.69;4395340;32;33930;-82
2021/10/18 12:34:05;;;;;;;3.53;2.53;;;;;;;18.72;38.09;100682.25;4396236;32;34280;-82
2021/10/18 12:36:47;;;;;;;4.78;2.83;;;;;;;18.38;36.99;100681.72;4396981;32;32088;-82
2021/10/18 12:39:35;;;;;;;4.85;2.28;;;;;;;17.87;38.90;100686.66;4398862;32;33755;-83
2021/10/18 12:42:22;;;;;;;4.03;3.55;;;;;;;18.26;38.38;100680.38;4397436;32;35985;-83
2021/10/18 12:45:08;;;;;;;3.05;2.83;;;;;;;18.29;38.10;100688.13;4398746;32;33804;-82
2021/10/18 12:47:59;;;;;;;;;;;;;;;17.92;38.29;100686.97;4397662;32;33114;-83
2021/10/18 12:50:45;;;;;;;6.45;4.18;;;;;;;18.07;38.89;100690.66;4387156;32;34452;-83
2021/10/18 12:53:26;;;;;;;3.87;3.17;;;;;;;17.37;39.08;100698.56;4385123;32;33994;-82
2021/10/18 12:56:23;;;;;;;5.85;3.55;;;;;;;17.98;38.69;100691.69;4384433;32;33505;-82
2021/10/18 12:59:07;;;;;;;12.95;3.78;;;;;;;17.86;38.99;100693.03;4385054;32;33405;-84
2021/10/18 13:01:36;;;;;;;3.75;3.45;;;;;;;18.19;39.37;100690.12;4371593;32;34040;-82
2021/10/18 13:04:18;;;;;;;5.10;2.90;;;;;;;18.04;38.72;100691.84;4372658;32;34815;-83
2021/10/18 13:07:02;;;;;;;2.30;2.10;;;;;;;18.16;38.51;100697.72;4383705;32;34363;-83
2021/10/18 13:09:52;;;;;;;3.37;2.30;;;;;;;18.44;38.73;100697.16;4395787;32;33684;-85
2021/10/18 13:12:26;;;;;;;7.40;2.85;;;;;;;18.22;38.35;100697.87;4395306;32;33754;-83
2021/10/18 13:15:02;;;;;;;;;;;;;;;17.99;38.13;100704.13;4382914;32;34526;-87
2021/10/18 13:17:35;;;;;;;5.15;2.17;;;;;;;18.25;37.58;100688.59;4383725;32;33091;-84
2021/10/18 13:20:07;;;;;;;2.17;2.08;;;;;;;18.21;37.81;100684.56;4397369;32;31756;-83
2021/10/18 13:22:44;;;;;;;2.40;2.20;;;;;;;17.99;38.63;100688.81;4383483;32;32619;-84
2021/10/18 13:25:18;;;;;;;1.80;1.70;;;;;;;18.16;37.77;100687.78;4383715;32;35596;-83
2021/10/18 13:28:08;;;;;;;2.67;2.28;;;;;;;18.40;39.00;100685.06;4375542;32;33589;-84
2021/10/18 13:30:39;;;;;;;4.25;2.05;;;;;;;18.61;38.72;100687.19;4399835;32;33148;-85
2021/10/18 13:33:13;;;;;;;2.35;2.20;;;;;;;19.23;35.99;100695.19;4382974;32;32645;-85
2021/10/18 13:35:47;;;;;;;2.58;2.10;;;;;;;19.25;35.86;100695.00;4389887;32;34290;-85
2021/10/18 13:38:37;;;;;;;2.75;2.30;;;;;;;19.31;36.24;100694.28;4395321;32;33755;-86